sensor_id;sensor_type;location;lat;lon;timestamp;P1;durP1;ratioP1;P2;durP2;ratioP2
14874;SDS011;7529;48.170;17.138;2022-12-18T00:03:16;193.80;;;184.50;;
14874;SDS011;7529;48.170;17.138;2022-12-18T00:07:27;336.85;;;320.38;;
14874;SDS011;7529;48.170;17.138;2022-12-18T00:11:39;297.27;;;283.20;;
14874;SDS011;7529;48.170;17.138;2022-12-18T00:15:50;368.92;;;351.05;;
14874;SDS011;7529;48.170;17.138;2022-12-18T00:20:02;297.08;;;282.90;;
14874;SDS011;7529;48.170;17.138;2022-12-18T00:24:14;385.15;;;366.42;;
14874;SDS011;7529;48.170;17.138;2022-12-18T00:28:27;311.55;;;296.60;;
14874;SDS011;7529;48.170;17.138;2022-12-18T00:32:39;294.40;;;279.88;;
14874;SDS011;7529;48.170;17.138;2022-12-18T00:36:50;280.75;;;267.23;;
14874;SDS011;7529;48.170;17.138;2022-12-18T00:41:02;346.58;;;329.50;;
14874;SDS011;7529;48.170;17.138;2022-12-18T00:45:14;220.88;;;210.13;;
14874;SDS011;7529;48.170;17.138;2022-12-18T00:49:26;298.77;;;284.10;;
14874;SDS011;7529;48.170;17.138;2022-12-18T00:53:39;272.60;;;259.33;;
14874;SDS011;7529;48.170;17.138;2022-12-18T00:57:51;352.55;;;335.27;;
14874;SDS011;7529;48.170;17.138;2022-12-18T01:02:03;304.75;;;289.80;;
14874;SDS011;7529;48.170;17.138;2022-12-18T01:06:15;351.80;;;334.77;;
14874;SDS011;7529;48.170;17.138;2022-12-18T01:10:26;341.15;;;324.55;;
14874;SDS011;7529;48.170;17.138;2022-12-18T01:14:41;335.13;;;318.83;;
14874;SDS011;7529;48.170;17.138;2022-12-18T01:18:53;308.52;;;293.60;;
14874;SDS011;7529;48.170;17.138;2022-12-18T01:23:05;252.35;;;240.38;;
14874;SDS011;7529;48.170;17.138;2022-12-18T01:27:18;319.42;;;303.63;;
14874;SDS011;7529;48.170;17.138;2022-12-18T01:31:30;329.75;;;313.50;;
14874;SDS011;7529;48.170;17.138;2022-12-18T01:35:42;345.52;;;328.38;;
14874;SDS011;7529;48.170;17.138;2022-12-18T01:39:54;339.38;;;322.65;;
14874;SDS011;7529;48.170;17.138;2022-12-18T01:44:46;468.40;;;444.15;;
14874;SDS011;7529;48.170;17.138;2022-12-18T01:48:57;575.97;;;544.33;;
14874;SDS011;7529;48.170;17.138;2022-12-18T01:53:15;472.90;;;448.15;;
14874;SDS011;7529;48.170;17.138;2022-12-18T01:57:28;493.05;;;466.83;;
14874;SDS011;7529;48.170;17.138;2022-12-18T02:01:40;485.88;;;460.75;;
14874;SDS011;7529;48.170;17.138;2022-12-18T02:10:07;508.17;;;480.90;;
14874;SDS011;7529;48.170;17.138;2022-12-18T02:18:52;493.05;;;466.88;;
14874;SDS011;7529;48.170;17.138;2022-12-18T02:27:35;542.95;;;513.28;;
14874;SDS011;7529;48.170;17.138;2022-12-18T02:31:50;540.22;;;510.50;;
14874;SDS011;7529;48.170;17.138;2022-12-18T02:36:03;552.85;;;523.33;;
14874;SDS011;7529;48.170;17.138;2022-12-18T02:40:16;618.28;;;584.17;;
14874;SDS011;7529;48.170;17.138;2022-12-18T02:44:29;614.08;;;580.85;;
14874;SDS011;7529;48.170;17.138;2022-12-18T02:48:40;536.05;;;507.17;;
14874;SDS011;7529;48.170;17.138;2022-12-18T02:53:01;547.05;;;516.90;;
14874;SDS011;7529;48.170;17.138;2022-12-18T03:06:06;632.88;;;597.63;;
14874;SDS011;7529;48.170;17.138;2022-12-18T03:10:23;622.75;;;588.38;;
14874;SDS011;7529;48.170;17.138;2022-12-18T03:14:37;586.25;;;554.58;;
14874;SDS011;7529;48.170;17.138;2022-12-18T03:23:04;586.28;;;553.55;;
14874;SDS011;7529;48.170;17.138;2022-12-18T03:27:19;650.80;;;614.08;;
14874;SDS011;7529;48.170;17.138;2022-12-18T03:31:33;618.85;;;584.72;;
14874;SDS011;7529;48.170;17.138;2022-12-18T03:35:45;592.20;;;559.40;;
14874;SDS011;7529;48.170;17.138;2022-12-18T03:39:57;574.17;;;542.20;;
14874;SDS011;7529;48.170;17.138;2022-12-18T03:44:13;571.58;;;540.88;;
14874;SDS011;7529;48.170;17.138;2022-12-18T03:49:01;568.72;;;538.22;;
14874;SDS011;7529;48.170;17.138;2022-12-18T03:57:52;566.40;;;536.20;;
14874;SDS011;7529;48.170;17.138;2022-12-18T04:02:04;568.17;;;538.30;;
14874;SDS011;7529;48.170;17.138;2022-12-18T04:06:18;612.15;;;578.55;;
14874;SDS011;7529;48.170;17.138;2022-12-18T04:10:30;578.67;;;546.85;;
14874;SDS011;7529;48.170;17.138;2022-12-18T04:14:44;572.42;;;541.35;;
14874;SDS011;7529;48.170;17.138;2022-12-18T04:18:55;584.47;;;551.90;;
14874;SDS011;7529;48.170;17.138;2022-12-18T04:23:09;581.97;;;550.88;;
14874;SDS011;7529;48.170;17.138;2022-12-18T04:27:22;567.22;;;537.35;;
14874;SDS011;7529;48.170;17.138;2022-12-18T04:31:35;548.83;;;520.58;;
14874;SDS011;7529;48.170;17.138;2022-12-18T04:35:47;547.33;;;518.38;;
14874;SDS011;7529;48.170;17.138;2022-12-18T04:39:59;547.40;;;518.55;;
14874;SDS011;7529;48.170;17.138;2022-12-18T04:44:20;497.10;;;471.48;;
14874;SDS011;7529;48.170;17.138;2022-12-18T04:48:31;584.03;;;552.65;;
14874;SDS011;7529;48.170;17.138;2022-12-18T04:52:43;568.15;;;537.78;;
14874;SDS011;7529;48.170;17.138;2022-12-18T04:56:57;553.22;;;523.30;;
14874;SDS011;7529;48.170;17.138;2022-12-18T05:01:08;567.35;;;536.33;;
14874;SDS011;7529;48.170;17.138;2022-12-18T05:05:21;559.20;;;529.33;;
14874;SDS011;7529;48.170;17.138;2022-12-18T05:09:32;572.78;;;541.92;;
14874;SDS011;7529;48.170;17.138;2022-12-18T05:13:44;575.40;;;544.53;;
14874;SDS011;7529;48.170;17.138;2022-12-18T05:17:56;589.08;;;557.00;;
14874;SDS011;7529;48.170;17.138;2022-12-18T05:22:08;610.55;;;576.75;;
14874;SDS011;7529;48.170;17.138;2022-12-18T05:26:20;619.80;;;584.75;;
14874;SDS011;7529;48.170;17.138;2022-12-18T05:30:31;611.50;;;577.33;;
14874;SDS011;7529;48.170;17.138;2022-12-18T05:34:43;614.08;;;580.13;;
14874;SDS011;7529;48.170;17.138;2022-12-18T05:38:55;597.17;;;564.15;;
14874;SDS011;7529;48.170;17.138;2022-12-18T05:43:06;620.97;;;585.10;;
14874;SDS011;7529;48.170;17.138;2022-12-18T05:47:18;575.35;;;543.35;;
14874;SDS011;7529;48.170;17.138;2022-12-18T05:51:29;569.42;;;538.75;;
14874;SDS011;7529;48.170;17.138;2022-12-18T05:55:42;576.03;;;544.70;;
14874;SDS011;7529;48.170;17.138;2022-12-18T05:59:54;571.30;;;539.95;;
14874;SDS011;7529;48.170;17.138;2022-12-18T06:04:05;553.72;;;524.50;;
14874;SDS011;7529;48.170;17.138;2022-12-18T06:08:17;575.80;;;543.63;;
14874;SDS011;7529;48.170;17.138;2022-12-18T06:12:28;582.75;;;550.40;;
14874;SDS011;7529;48.170;17.138;2022-12-18T06:16:40;575.15;;;543.20;;
14874;SDS011;7529;48.170;17.138;2022-12-18T06:20:55;566.92;;;534.67;;
14874;SDS011;7529;48.170;17.138;2022-12-18T06:25:07;562.50;;;531.05;;
14874;SDS011;7529;48.170;17.138;2022-12-18T06:29:19;577.13;;;543.60;;
14874;SDS011;7529;48.170;17.138;2022-12-18T06:33:30;531.22;;;501.67;;
14874;SDS011;7529;48.170;17.138;2022-12-18T06:37:42;588.42;;;554.13;;
14874;SDS011;7529;48.170;17.138;2022-12-18T06:41:53;561.42;;;529.95;;
14874;SDS011;7529;48.170;17.138;2022-12-18T06:46:05;562.10;;;531.10;;
14874;SDS011;7529;48.170;17.138;2022-12-18T06:50:17;534.08;;;505.30;;
14874;SDS011;7529;48.170;17.138;2022-12-18T06:54:28;573.50;;;541.20;;
14874;SDS011;7529;48.170;17.138;2022-12-18T06:58:40;542.25;;;512.80;;
14874;SDS011;7529;48.170;17.138;2022-12-18T07:02:52;525.10;;;496.85;;
14874;SDS011;7529;48.170;17.138;2022-12-18T07:07:03;521.83;;;493.75;;
14874;SDS011;7529;48.170;17.138;2022-12-18T07:11:15;504.67;;;477.70;;
14874;SDS011;7529;48.170;17.138;2022-12-18T07:15:27;452.50;;;429.27;;
14874;SDS011;7529;48.170;17.138;2022-12-18T07:19:39;456.77;;;433.02;;
14874;SDS011;7529;48.170;17.138;2022-12-18T07:23:50;361.25;;;343.25;;
14874;SDS011;7529;48.170;17.138;2022-12-18T07:28:02;401.83;;;381.88;;
14874;SDS011;7529;48.170;17.138;2022-12-18T07:32:14;321.17;;;305.15;;
14874;SDS011;7529;48.170;17.138;2022-12-18T07:36:26;335.42;;;317.90;;
14874;SDS011;7529;48.170;17.138;2022-12-18T07:40:37;314.50;;;298.27;;
14874;SDS011;7529;48.170;17.138;2022-12-18T07:44:49;287.00;;;272.38;;
14874;SDS011;7529;48.170;17.138;2022-12-18T07:49:00;200.02;;;189.10;;
14874;SDS011;7529;48.170;17.138;2022-12-18T07:53:12;147.13;;;138.45;;
14874;SDS011;7529;48.170;17.138;2022-12-18T07:57:24;100.28;;;93.85;;
14874;SDS011;7529;48.170;17.138;2022-12-18T08:01:36;86.78;;;79.85;;
14874;SDS011;7529;48.170;17.138;2022-12-18T08:05:47;63.40;;;57.90;;
14874;SDS011;7529;48.170;17.138;2022-12-18T08:09:59;50.70;;;45.65;;
14874;SDS011;7529;48.170;17.138;2022-12-18T08:14:10;46.08;;;41.35;;
14874;SDS011;7529;48.170;17.138;2022-12-18T08:18:22;43.60;;;39.30;;
14874;SDS011;7529;48.170;17.138;2022-12-18T08:22:34;52.15;;;48.00;;
14874;SDS011;7529;48.170;17.138;2022-12-18T08:26:47;44.22;;;39.97;;
14874;SDS011;7529;48.170;17.138;2022-12-18T08:30:59;48.33;;;43.95;;
14874;SDS011;7529;48.170;17.138;2022-12-18T08:35:11;47.30;;;42.80;;
14874;SDS011;7529;48.170;17.138;2022-12-18T08:39:23;48.33;;;44.03;;
14874;SDS011;7529;48.170;17.138;2022-12-18T08:43:35;48.97;;;44.25;;
14874;SDS011;7529;48.170;17.138;2022-12-18T08:48:05;50.30;;;44.97;;
14874;SDS011;7529;48.170;17.138;2022-12-18T08:52:17;43.63;;;39.00;;
14874;SDS011;7529;48.170;17.138;2022-12-18T08:56:28;42.40;;;37.85;;
14874;SDS011;7529;48.170;17.138;2022-12-18T09:00:40;40.25;;;36.13;;
14874;SDS011;7529;48.170;17.138;2022-12-18T09:04:52;39.25;;;34.92;;
14874;SDS011;7529;48.170;17.138;2022-12-18T09:09:04;38.00;;;33.97;;
14874;SDS011;7529;48.170;17.138;2022-12-18T09:13:16;43.33;;;34.47;;
14874;SDS011;7529;48.170;17.138;2022-12-18T09:17:28;36.55;;;32.35;;
14874;SDS011;7529;48.170;17.138;2022-12-18T09:21:39;35.95;;;32.33;;
14874;SDS011;7529;48.170;17.138;2022-12-18T09:25:51;35.95;;;31.40;;
14874;SDS011;7529;48.170;17.138;2022-12-18T09:30:03;34.13;;;30.63;;
14874;SDS011;7529;48.170;17.138;2022-12-18T09:34:15;37.83;;;27.23;;
14874;SDS011;7529;48.170;17.138;2022-12-18T09:38:27;35.28;;;29.48;;
14874;SDS011;7529;48.170;17.138;2022-12-18T09:42:38;35.97;;;32.10;;
14874;SDS011;7529;48.170;17.138;2022-12-18T09:51:24;37.55;;;33.33;;
14874;SDS011;7529;48.170;17.138;2022-12-18T09:55:43;41.70;;;33.97;;
14874;SDS011;7529;48.170;17.138;2022-12-18T09:59:57;39.22;;;34.97;;
14874;SDS011;7529;48.170;17.138;2022-12-18T10:04:21;38.95;;;34.90;;
14874;SDS011;7529;48.170;17.138;2022-12-18T10:08:37;39.13;;;35.25;;
14874;SDS011;7529;48.170;17.138;2022-12-18T10:21:30;39.92;;;35.72;;
14874;SDS011;7529;48.170;17.138;2022-12-18T10:30:19;35.53;;;31.83;;
14874;SDS011;7529;48.170;17.138;2022-12-18T10:34:31;34.47;;;30.90;;
14874;SDS011;7529;48.170;17.138;2022-12-18T10:38:43;38.45;;;32.13;;
14874;SDS011;7529;48.170;17.138;2022-12-18T10:43:13;31.75;;;28.38;;
14874;SDS011;7529;48.170;17.138;2022-12-18T10:47:26;35.50;;;31.77;;
14874;SDS011;7529;48.170;17.138;2022-12-18T10:51:38;25.15;;;22.67;;
14874;SDS011;7529;48.170;17.138;2022-12-18T10:55:49;23.85;;;21.27;;
14874;SDS011;7529;48.170;17.138;2022-12-18T11:00:22;25.38;;;23.13;;
14874;SDS011;7529;48.170;17.138;2022-12-18T11:04:34;27.90;;;21.83;;
14874;SDS011;7529;48.170;17.138;2022-12-18T11:09:02;22.95;;;21.10;;
14874;SDS011;7529;48.170;17.138;2022-12-18T11:13:18;25.38;;;22.27;;
14874;SDS011;7529;48.170;17.138;2022-12-18T11:17:32;23.20;;;21.17;;
14874;SDS011;7529;48.170;17.138;2022-12-18T11:21:45;21.88;;;20.05;;
14874;SDS011;7529;48.170;17.138;2022-12-18T11:25:58;20.38;;;18.60;;
14874;SDS011;7529;48.170;17.138;2022-12-18T11:30:22;21.60;;;19.55;;
14874;SDS011;7529;48.170;17.138;2022-12-18T11:34:36;21.50;;;19.45;;
14874;SDS011;7529;48.170;17.138;2022-12-18T11:38:48;22.45;;;20.45;;
14874;SDS011;7529;48.170;17.138;2022-12-18T11:43:07;25.67;;;23.27;;
14874;SDS011;7529;48.170;17.138;2022-12-18T11:56:39;26.95;;;24.10;;
14874;SDS011;7529;48.170;17.138;2022-12-18T12:00:59;23.38;;;21.40;;
14874;SDS011;7529;48.170;17.138;2022-12-18T12:14:15;26.30;;;21.20;;
14874;SDS011;7529;48.170;17.138;2022-12-18T12:31:53;22.10;;;20.15;;
14874;SDS011;7529;48.170;17.138;2022-12-18T12:41:13;26.23;;;19.38;;
14874;SDS011;7529;48.170;17.138;2022-12-18T12:45:53;22.30;;;20.45;;
14874;SDS011;7529;48.170;17.138;2022-12-18T12:50:15;22.52;;;20.17;;
14874;SDS011;7529;48.170;17.138;2022-12-18T12:54:28;24.25;;;20.45;;
14874;SDS011;7529;48.170;17.138;2022-12-18T12:58:46;20.08;;;18.48;;
14874;SDS011;7529;48.170;17.138;2022-12-18T13:07:50;21.60;;;19.80;;
14874;SDS011;7529;48.170;17.138;2022-12-18T13:12:04;27.30;;;24.50;;
14874;SDS011;7529;48.170;17.138;2022-12-18T13:16:40;30.95;;;23.10;;
14874;SDS011;7529;48.170;17.138;2022-12-18T13:25:29;25.08;;;22.77;;
14874;SDS011;7529;48.170;17.138;2022-12-18T13:29:45;23.25;;;21.55;;
14874;SDS011;7529;48.170;17.138;2022-12-18T13:39:11;24.60;;;22.48;;
14874;SDS011;7529;48.170;17.138;2022-12-18T13:43:34;24.35;;;22.38;;
14874;SDS011;7529;48.170;17.138;2022-12-18T13:47:50;24.40;;;22.20;;
14874;SDS011;7529;48.170;17.138;2022-12-18T13:52:02;25.35;;;23.25;;
14874;SDS011;7529;48.170;17.138;2022-12-18T13:56:32;24.25;;;21.88;;
14874;SDS011;7529;48.170;17.138;2022-12-18T14:00:46;32.95;;;28.05;;
14874;SDS011;7529;48.170;17.138;2022-12-18T14:04:57;31.50;;;28.25;;
14874;SDS011;7529;48.170;17.138;2022-12-18T14:09:10;34.55;;;30.85;;
14874;SDS011;7529;48.170;17.138;2022-12-18T14:13:32;40.53;;;36.03;;
14874;SDS011;7529;48.170;17.138;2022-12-18T14:17:46;42.95;;;36.85;;
14874;SDS011;7529;48.170;17.138;2022-12-18T14:21:57;41.10;;;33.90;;
14874;SDS011;7529;48.170;17.138;2022-12-18T14:26:25;45.88;;;40.67;;
14874;SDS011;7529;48.170;17.138;2022-12-18T14:30:42;43.40;;;37.78;;
14874;SDS011;7529;48.170;17.138;2022-12-18T14:34:55;41.75;;;37.42;;
14874;SDS011;7529;48.170;17.138;2022-12-18T14:39:11;45.78;;;40.97;;
14874;SDS011;7529;48.170;17.138;2022-12-18T14:43:28;69.13;;;61.78;;
14874;SDS011;7529;48.170;17.138;2022-12-18T14:47:43;52.28;;;47.03;;
14874;SDS011;7529;48.170;17.138;2022-12-18T14:51:55;61.55;;;55.47;;
14874;SDS011;7529;48.170;17.138;2022-12-18T14:56:14;62.92;;;56.78;;
14874;SDS011;7529;48.170;17.138;2022-12-18T15:00:27;74.80;;;68.47;;
14874;SDS011;7529;48.170;17.138;2022-12-18T15:04:39;72.43;;;66.00;;
14874;SDS011;7529;48.170;17.138;2022-12-18T15:08:53;70.40;;;64.43;;
14874;SDS011;7529;48.170;17.138;2022-12-18T15:17:21;81.22;;;74.72;;
14874;SDS011;7529;48.170;17.138;2022-12-18T15:21:34;76.10;;;70.18;;
14874;SDS011;7529;48.170;17.138;2022-12-18T15:25:46;85.45;;;77.90;;
14874;SDS011;7529;48.170;17.138;2022-12-18T15:34:22;86.30;;;79.82;;
14874;SDS011;7529;48.170;17.138;2022-12-18T15:38:35;86.93;;;79.43;;
14874;SDS011;7529;48.170;17.138;2022-12-18T15:42:48;89.05;;;81.88;;
14874;SDS011;7529;48.170;17.138;2022-12-18T15:47:19;90.88;;;83.53;;
14874;SDS011;7529;48.170;17.138;2022-12-18T15:51:32;85.95;;;78.28;;
14874;SDS011;7529;48.170;17.138;2022-12-18T15:55:45;100.88;;;93.45;;
14874;SDS011;7529;48.170;17.138;2022-12-18T16:00:15;112.60;;;103.60;;
14874;SDS011;7529;48.170;17.138;2022-12-18T16:04:27;104.95;;;97.10;;
14874;SDS011;7529;48.170;17.138;2022-12-18T16:08:39;113.22;;;105.40;;
14874;SDS011;7529;48.170;17.138;2022-12-18T16:12:50;91.38;;;84.32;;
14874;SDS011;7529;48.170;17.138;2022-12-18T16:17:03;81.95;;;74.68;;
14874;SDS011;7529;48.170;17.138;2022-12-18T16:21:20;81.53;;;75.18;;
14874;SDS011;7529;48.170;17.138;2022-12-18T16:25:32;84.50;;;77.88;;
14874;SDS011;7529;48.170;17.138;2022-12-18T16:29:43;80.28;;;73.75;;
14874;SDS011;7529;48.170;17.138;2022-12-18T16:38:32;74.38;;;68.00;;
14874;SDS011;7529;48.170;17.138;2022-12-18T16:42:45;72.78;;;66.35;;
14874;SDS011;7529;48.170;17.138;2022-12-18T16:46:57;73.20;;;66.97;;
14874;SDS011;7529;48.170;17.138;2022-12-18T16:51:12;75.15;;;68.40;;
14874;SDS011;7529;48.170;17.138;2022-12-18T16:55:23;66.72;;;60.70;;
14874;SDS011;7529;48.170;17.138;2022-12-18T16:59:35;71.28;;;64.68;;
14874;SDS011;7529;48.170;17.138;2022-12-18T17:03:53;79.85;;;73.15;;
14874;SDS011;7529;48.170;17.138;2022-12-18T17:08:06;82.53;;;75.35;;
14874;SDS011;7529;48.170;17.138;2022-12-18T17:12:18;81.20;;;74.13;;
14874;SDS011;7529;48.170;17.138;2022-12-18T17:16:31;80.05;;;73.05;;
14874;SDS011;7529;48.170;17.138;2022-12-18T17:20:43;73.00;;;66.70;;
14874;SDS011;7529;48.170;17.138;2022-12-18T17:24:54;83.75;;;76.70;;
14874;SDS011;7529;48.170;17.138;2022-12-18T17:29:13;75.25;;;68.75;;
14874;SDS011;7529;48.170;17.138;2022-12-18T17:33:27;81.80;;;74.72;;
14874;SDS011;7529;48.170;17.138;2022-12-18T17:37:38;83.55;;;76.50;;
14874;SDS011;7529;48.170;17.138;2022-12-18T17:41:50;97.82;;;89.95;;
14874;SDS011;7529;48.170;17.138;2022-12-18T17:46:02;83.20;;;76.32;;
14874;SDS011;7529;48.170;17.138;2022-12-18T17:50:14;79.35;;;72.38;;
14874;SDS011;7529;48.170;17.138;2022-12-18T17:54:26;100.75;;;92.47;;
14874;SDS011;7529;48.170;17.138;2022-12-18T17:58:38;90.72;;;83.63;;
14874;SDS011;7529;48.170;17.138;2022-12-18T18:02:49;98.07;;;90.47;;
14874;SDS011;7529;48.170;17.138;2022-12-18T18:07:01;92.68;;;85.25;;
14874;SDS011;7529;48.170;17.138;2022-12-18T18:11:14;88.53;;;81.55;;
14874;SDS011;7529;48.170;17.138;2022-12-18T18:15:53;101.20;;;93.15;;
14874;SDS011;7529;48.170;17.138;2022-12-18T18:20:08;99.10;;;91.38;;
14874;SDS011;7529;48.170;17.138;2022-12-18T18:24:20;89.32;;;81.78;;
14874;SDS011;7529;48.170;17.138;2022-12-18T18:28:33;81.60;;;74.72;;
14874;SDS011;7529;48.170;17.138;2022-12-18T18:32:46;81.03;;;74.40;;
14874;SDS011;7529;48.170;17.138;2022-12-18T18:36:58;83.00;;;76.18;;
14874;SDS011;7529;48.170;17.138;2022-12-18T18:41:10;78.00;;;71.22;;
14874;SDS011;7529;48.170;17.138;2022-12-18T18:45:22;75.15;;;68.10;;
14874;SDS011;7529;48.170;17.138;2022-12-18T18:49:33;77.30;;;70.63;;
14874;SDS011;7529;48.170;17.138;2022-12-18T18:53:45;83.20;;;76.05;;
14874;SDS011;7529;48.170;17.138;2022-12-18T18:57:58;77.43;;;71.25;;
14874;SDS011;7529;48.170;17.138;2022-12-18T19:02:10;74.60;;;68.55;;
14874;SDS011;7529;48.170;17.138;2022-12-18T19:06:25;81.03;;;74.25;;
14874;SDS011;7529;48.170;17.138;2022-12-18T19:10:39;81.65;;;75.50;;
14874;SDS011;7529;48.170;17.138;2022-12-18T19:14:55;87.65;;;79.68;;
14874;SDS011;7529;48.170;17.138;2022-12-18T19:19:06;82.35;;;75.90;;
14874;SDS011;7529;48.170;17.138;2022-12-18T19:23:18;84.80;;;76.60;;
14874;SDS011;7529;48.170;17.138;2022-12-18T19:27:30;81.97;;;75.35;;
14874;SDS011;7529;48.170;17.138;2022-12-18T19:31:41;84.53;;;77.22;;
14874;SDS011;7529;48.170;17.138;2022-12-18T19:35:54;97.93;;;90.35;;
14874;SDS011;7529;48.170;17.138;2022-12-18T19:40:06;93.82;;;86.97;;
14874;SDS011;7529;48.170;17.138;2022-12-18T19:44:21;84.72;;;77.78;;
14874;SDS011;7529;48.170;17.138;2022-12-18T19:48:33;65.85;;;59.38;;
14874;SDS011;7529;48.170;17.138;2022-12-18T19:52:45;86.72;;;79.72;;
14874;SDS011;7529;48.170;17.138;2022-12-18T19:56:57;73.60;;;66.65;;
14874;SDS011;7529;48.170;17.138;2022-12-18T20:01:09;91.43;;;83.28;;
14874;SDS011;7529;48.170;17.138;2022-12-18T20:05:22;65.95;;;59.10;;
14874;SDS011;7529;48.170;17.138;2022-12-18T20:09:35;76.50;;;69.82;;
14874;SDS011;7529;48.170;17.138;2022-12-18T20:13:47;82.80;;;76.18;;
14874;SDS011;7529;48.170;17.138;2022-12-18T20:17:59;85.47;;;78.63;;
14874;SDS011;7529;48.170;17.138;2022-12-18T20:22:10;93.40;;;85.65;;
14874;SDS011;7529;48.170;17.138;2022-12-18T20:26:22;99.88;;;91.63;;
14874;SDS011;7529;48.170;17.138;2022-12-18T20:30:34;97.32;;;90.22;;
14874;SDS011;7529;48.170;17.138;2022-12-18T20:34:45;101.70;;;94.18;;
14874;SDS011;7529;48.170;17.138;2022-12-18T20:38:57;120.45;;;111.18;;
14874;SDS011;7529;48.170;17.138;2022-12-18T20:43:09;134.90;;;126.07;;
14874;SDS011;7529;48.170;17.138;2022-12-18T20:47:20;145.18;;;135.30;;
14874;SDS011;7529;48.170;17.138;2022-12-18T20:51:32;152.57;;;142.38;;
14874;SDS011;7529;48.170;17.138;2022-12-18T20:55:44;203.15;;;191.40;;
14874;SDS011;7529;48.170;17.138;2022-12-18T20:59:55;209.68;;;197.05;;
14874;SDS011;7529;48.170;17.138;2022-12-18T21:04:11;227.73;;;214.80;;
14874;SDS011;7529;48.170;17.138;2022-12-18T21:08:22;247.40;;;234.00;;
14874;SDS011;7529;48.170;17.138;2022-12-18T21:12:34;271.58;;;256.88;;
14874;SDS011;7529;48.170;17.138;2022-12-18T21:16:48;412.85;;;390.00;;
14874;SDS011;7529;48.170;17.138;2022-12-18T21:21:00;536.55;;;505.83;;
14874;SDS011;7529;48.170;17.138;2022-12-18T21:25:12;510.42;;;481.08;;
14874;SDS011;7529;48.170;17.138;2022-12-18T21:29:24;573.50;;;540.35;;
14874;SDS011;7529;48.170;17.138;2022-12-18T21:33:36;570.58;;;537.25;;
14874;SDS011;7529;48.170;17.138;2022-12-18T21:37:48;491.52;;;462.85;;
14874;SDS011;7529;48.170;17.138;2022-12-18T21:41:59;589.40;;;554.55;;
14874;SDS011;7529;48.170;17.138;2022-12-18T21:46:29;631.65;;;594.70;;
14874;SDS011;7529;48.170;17.138;2022-12-18T21:50:41;548.70;;;516.92;;
14874;SDS011;7529;48.170;17.138;2022-12-18T21:54:53;566.40;;;533.42;;
14874;SDS011;7529;48.170;17.138;2022-12-18T21:59:04;623.53;;;587.13;;
14874;SDS011;7529;48.170;17.138;2022-12-18T22:03:16;590.13;;;555.90;;
14874;SDS011;7529;48.170;17.138;2022-12-18T22:07:29;575.63;;;541.95;;
14874;SDS011;7529;48.170;17.138;2022-12-18T22:11:40;575.33;;;542.50;;
14874;SDS011;7529;48.170;17.138;2022-12-18T22:15:52;505.42;;;476.15;;
14874;SDS011;7529;48.170;17.138;2022-12-18T22:20:04;504.92;;;476.67;;
14874;SDS011;7529;48.170;17.138;2022-12-18T22:24:18;490.42;;;463.13;;
14874;SDS011;7529;48.170;17.138;2022-12-18T22:28:31;510.10;;;481.40;;
14874;SDS011;7529;48.170;17.138;2022-12-18T22:33:01;490.85;;;462.15;;
14874;SDS011;7529;48.170;17.138;2022-12-18T22:37:13;530.30;;;500.70;;
14874;SDS011;7529;48.170;17.138;2022-12-18T22:41:24;505.90;;;477.30;;
14874;SDS011;7529;48.170;17.138;2022-12-18T22:45:36;426.25;;;401.90;;
14874;SDS011;7529;48.170;17.138;2022-12-18T22:49:48;456.40;;;430.52;;
14874;SDS011;7529;48.170;17.138;2022-12-18T22:53:59;455.60;;;430.08;;
14874;SDS011;7529;48.170;17.138;2022-12-18T22:58:11;409.40;;;386.02;;
14874;SDS011;7529;48.170;17.138;2022-12-18T23:02:22;417.13;;;394.42;;
14874;SDS011;7529;48.170;17.138;2022-12-18T23:06:34;424.92;;;399.63;;
14874;SDS011;7529;48.170;17.138;2022-12-18T23:10:46;404.55;;;382.17;;
14874;SDS011;7529;48.170;17.138;2022-12-18T23:14:57;351.73;;;332.33;;
14874;SDS011;7529;48.170;17.138;2022-12-18T23:19:09;388.55;;;366.38;;
14874;SDS011;7529;48.170;17.138;2022-12-18T23:23:21;359.17;;;338.58;;
14874;SDS011;7529;48.170;17.138;2022-12-18T23:27:32;390.75;;;368.67;;
14874;SDS011;7529;48.170;17.138;2022-12-18T23:31:44;322.52;;;304.73;;
14874;SDS011;7529;48.170;17.138;2022-12-18T23:35:59;381.38;;;359.38;;
14874;SDS011;7529;48.170;17.138;2022-12-18T23:40:11;411.17;;;387.00;;
14874;SDS011;7529;48.170;17.138;2022-12-18T23:44:23;372.13;;;351.05;;
14874;SDS011;7529;48.170;17.138;2022-12-18T23:48:34;397.85;;;375.38;;
14874;SDS011;7529;48.170;17.138;2022-12-18T23:52:46;352.10;;;331.17;;
14874;SDS011;7529;48.170;17.138;2022-12-18T23:56:57;290.52;;;272.77;;
